Forks, WA

1:28 AM PDT on August 28, 2014 (GMT -0700)
RAWS FORKS WA US | Change Station
CLOSE
Current Station
Personal Weather Station
Location: Forks, WA
Elevation: 303 ft
Nearby Weather Stations

Elev 303 ft 47.96 °N, 124.38 °W | Updated 55 minutes ago

Overcast
Overcast
60 °F
Feels Like 60 °F
N
0
Wind Variable Wind from North
Gusts 2.0 mph

Today
High -- | Low -- °F
--% Chance of Precip.
Yesterday
High -- | Low -- °F
Precip. -- in
6:30 AM 8:06 PM
Waxing Crescent, 7% visible
Pressure 30.08 in
Visibility 2.0 miles
Clouds Overcast 600 ft
Dew Point 59 °F
Humidity 97%
Rainfall 0.00 in
Snow Depth Not available.
UV 0 out of 12
Pollen 3.50 out of 12
Air Quality Not available.
Flu Activity Not available.
SPECI KUIL 280822Z AUTO 00000KT 2SM BR OVC006 16/16 A3008 RMK AO2 T01560156

More Conditions Fewer Conditions

Pressure 30.08 in
Visibility 2.0 miles
Clouds Overcast 600 ft
Dew Point 59 °F
Humidity 97%
Rainfall 0.00 in
Snow Depth Not available.
UV 0 out of 12
Pollen 3.50 out of 12
Air Quality Not available.
Flu Activity Not available.
SPECI KUIL 280822Z AUTO 00000KT 2SM BR OVC006 16/16 A3008 RMK AO2 T01560156

More Conditions Fewer Conditions

10-Day Weather Forecast

Almanac

Astronomy

Aug. 28, 2014 Rise Set
Actual Time 6:30 AM PDT 8:06 PM PDT
Civil Twilight 5:58 AM PDT 8:38 PM PDT
Nautical Twilight 5:18 AM PDT 9:18 PM PDT
Astronomical Twilight 4:35 AM PDT 10:01 PM PDT
Moon 9:44 AM PDT 9:15 PM PDT
Length of Visible Light 14h 40m
Length of Day
13h 35m
Tomorrow will be 3m 19s shorter.
Waxing Crescent, 7% of the Moon is Illuminated
Today
Waxing Crescent
Sep 2
First Quarter
Sep 8
Full
Sep 15
Last Quarter
Sep 24
New

Today's Extremes

State Highs State Lows

Community

WunderPhotos

Upload Photos

1,747,918 photos uploaded!

Nearby

Snow Depth

Station Depth Elevation
Dungeness 0 in 4100 ft
Mount Crag 0 in 4050 ft
Alpine Meadows 0 in 3500 ft
Elbow Lake 0 in 3200 ft
Mf Nooksack 0 in 4980 ft

Earthquake Activity

City Distance Mag. Time & Date
No recent earthquake activity has been reported nearby.
Minimum magnitude displayed is 2.5.

Coastal Water Temperatures

Place Temperature
La Push, WA 50.0 °F
Westport, WA 57.9 °F
Port Angeles, WA 54.0 °F
Astoria, OR 71.1 °F

Nearby Weather Stations